createdAt,value
2022-11-29T00:01:43.750Z,5.60
2022-11-29T00:04:12.495Z,5.60
2022-11-29T00:06:41.187Z,5.70
2022-11-29T00:09:13.964Z,5.70
2022-11-29T00:12:00.989Z,5.70
2022-11-29T00:14:31.345Z,5.60
2022-11-29T00:17:02.437Z,5.60
2022-11-29T00:19:32.172Z,5.60
2022-11-29T00:22:01.121Z,5.60
2022-11-29T00:24:31.584Z,5.50
2022-11-29T00:27:01.272Z,5.50
2022-11-29T00:29:31.682Z,5.50
2022-11-29T00:32:00.510Z,5.60
2022-11-29T00:34:29.572Z,5.60
2022-11-29T00:36:57.975Z,5.60
2022-11-29T00:39:26.696Z,5.70
2022-11-29T00:41:55.135Z,5.60
2022-11-29T00:44:23.631Z,5.60
2022-11-29T00:46:53.365Z,5.70
2022-11-29T00:49:21.824Z,5.60
2022-11-29T00:51:50.315Z,5.70
2022-11-29T00:54:19.091Z,5.60
2022-11-29T00:56:47.693Z,5.50
2022-11-29T00:59:16.102Z,5.60
2022-11-29T01:01:44.632Z,5.60
2022-11-29T01:04:14.776Z,5.60
2022-11-29T01:06:43.165Z,5.60
2022-11-29T01:09:11.618Z,5.60
2022-11-29T01:11:40.053Z,5.50
2022-11-29T01:14:08.485Z,5.50
2022-11-29T01:16:36.932Z,5.50
2022-11-29T01:19:07.222Z,5.50
2022-11-29T01:21:37.000Z,5.50
2022-11-29T01:24:05.956Z,5.60
2022-11-29T01:26:35.887Z,5.60
2022-11-29T01:29:04.677Z,5.50
2022-11-29T01:31:36.443Z,5.50
2022-11-29T01:34:07.788Z,5.50
2022-11-29T01:36:37.571Z,5.50
2022-11-29T01:39:07.510Z,5.50
2022-11-29T01:41:38.618Z,5.50
2022-11-29T01:44:46.811Z,5.50
2022-11-29T01:47:15.392Z,5.40
2022-11-29T01:49:48.560Z,5.30
2022-11-29T01:52:23.559Z,5.40
2022-11-29T01:54:58.033Z,5.40
2022-11-29T01:57:27.499Z,5.30
2022-11-29T02:00:01.929Z,5.30
2022-11-29T02:02:46.334Z,5.40
2022-11-29T02:05:19.645Z,5.40
2022-11-29T02:07:55.582Z,5.30
2022-11-29T02:10:50.834Z,5.20
2022-11-29T02:13:33.708Z,5.20
2022-11-29T02:16:11.227Z,5.20
2022-11-29T02:18:56.435Z,5.20
2022-11-29T02:21:40.266Z,5.40
2022-11-29T02:24:53.317Z,5.30
2022-11-29T02:28:31.263Z,5.30
2022-11-29T02:31:48.642Z,5.30
2022-11-29T02:34:47.972Z,5.30
2022-11-29T02:38:12.263Z,5.30
2022-11-29T02:41:06.555Z,5.30
2022-11-29T02:44:19.292Z,5.20
2022-11-29T02:47:09.142Z,5.30
2022-11-29T02:50:14.802Z,5.30
2022-11-29T02:52:56.005Z,5.30
2022-11-29T02:55:34.710Z,5.30
2022-11-29T02:58:16.461Z,5.30
2022-11-29T03:00:59.073Z,5.30
2022-11-29T03:03:36.533Z,5.30
2022-11-29T03:06:19.709Z,5.10
2022-11-29T03:08:55.848Z,5.10
2022-11-29T03:11:35.609Z,5.20
2022-11-29T03:14:18.530Z,5.20
2022-11-29T03:17:00.886Z,5.30
2022-11-29T03:19:50.424Z,5.30
2022-11-29T03:22:36.879Z,5.30
2022-11-29T03:25:14.480Z,5.20
2022-11-29T03:27:51.430Z,5.20
2022-11-29T03:30:21.709Z,5.30
2022-11-29T03:33:02.280Z,5.40
2022-11-29T03:35:40.943Z,5.40
2022-11-29T03:38:25.745Z,5.30
2022-11-29T03:41:02.277Z,5.30
2022-11-29T03:43:43.715Z,5.40
2022-11-29T03:46:19.235Z,5.30
2022-11-29T03:48:55.209Z,5.30
2022-11-29T03:51:29.877Z,5.30
2022-11-29T03:54:08.940Z,5.20
2022-11-29T03:56:41.437Z,5.20
2022-11-29T03:59:30.405Z,5.20
2022-11-29T04:02:30.664Z,5.20
2022-11-29T04:05:29.834Z,5.20
2022-11-29T04:08:56.126Z,5.20
2022-11-29T04:12:09.685Z,5.30
2022-11-29T04:15:23.612Z,5.20
2022-11-29T04:18:40.805Z,5.30
2022-11-29T04:21:32.456Z,5.30
2022-11-29T04:24:40.325Z,5.20
2022-11-29T04:27:48.614Z,5.20
2022-11-29T04:30:22.695Z,5.20
2022-11-29T04:33:39.201Z,5.20
2022-11-29T04:36:49.962Z,5.30
2022-11-29T04:39:44.549Z,5.30
2022-11-29T04:42:44.493Z,5.30
2022-11-29T04:45:48.964Z,5.30
2022-11-29T04:48:41.574Z,5.30
2022-11-29T04:51:27.155Z,5.30
2022-11-29T04:54:08.714Z,5.30
2022-11-29T04:56:45.689Z,5.40
2022-11-29T04:59:25.923Z,5.40
2022-11-29T05:02:08.569Z,5.30
2022-11-29T05:04:51.613Z,5.30
2022-11-29T05:07:32.340Z,5.20
2022-11-29T05:10:14.965Z,5.30
2022-11-29T05:12:59.143Z,5.30
2022-11-29T05:16:15.734Z,5.30
2022-11-29T05:19:16.334Z,5.30
2022-11-29T05:22:00.142Z,5.30
2022-11-29T05:24:47.155Z,5.20
2022-11-29T05:27:28.371Z,5.20
2022-11-29T05:30:04.170Z,5.20
2022-11-29T05:32:45.650Z,5.10
2022-11-29T05:35:52.881Z,5.20
2022-11-29T05:38:46.029Z,5.20
2022-11-29T05:41:49.196Z,5.10
2022-11-29T05:44:28.663Z,5.00
2022-11-29T05:47:01.303Z,5.10
2022-11-29T05:49:42.370Z,5.10
2022-11-29T05:52:25.513Z,5.20
2022-11-29T05:55:20.368Z,5.20
2022-11-29T05:57:58.713Z,5.10
2022-11-29T06:00:33.864Z,5.00
2022-11-29T06:03:20.113Z,5.00
2022-11-29T06:05:58.353Z,5.00
2022-11-29T06:08:40.652Z,5.00
2022-11-29T06:11:18.989Z,5.10
2022-11-29T06:14:03.085Z,5.10
2022-11-29T06:17:03.575Z,5.20
2022-11-29T06:20:16.309Z,5.00
2022-11-29T06:23:19.021Z,5.00
2022-11-29T06:26:08.162Z,4.90
2022-11-29T06:28:53.536Z,4.90
2022-11-29T06:31:29.498Z,5.00
2022-11-29T06:34:10.115Z,5.00
2022-11-29T06:36:49.292Z,5.00
2022-11-29T06:39:19.927Z,5.00
2022-11-29T06:41:48.905Z,5.10
2022-11-29T06:44:17.918Z,5.00
2022-11-29T06:46:50.173Z,5.00
2022-11-29T06:49:28.423Z,5.00
2022-11-29T06:52:13.507Z,5.00
2022-11-29T06:55:13.428Z,5.10
2022-11-29T06:58:07.864Z,5.10
2022-11-29T07:00:49.688Z,5.10
2022-11-29T07:03:49.530Z,5.00
2022-11-29T07:06:25.929Z,5.00
2022-11-29T07:08:59.830Z,4.90
2022-11-29T07:11:30.685Z,5.00
2022-11-29T07:13:59.638Z,5.00
2022-11-29T07:16:37.935Z,5.00
2022-11-29T07:19:21.422Z,5.00
2022-11-29T07:22:02.665Z,5.10
2022-11-29T07:24:49.708Z,5.20
2022-11-29T07:27:28.751Z,5.30
2022-11-29T07:30:13.668Z,5.30
2022-11-29T07:33:00.670Z,5.30
2022-11-29T07:35:40.875Z,5.30
2022-11-29T07:38:21.417Z,5.30
2022-11-29T07:40:59.414Z,5.20
2022-11-29T07:43:46.263Z,5.20
2022-11-29T07:46:14.620Z,5.10
2022-11-29T07:48:43.024Z,5.10
2022-11-29T07:51:12.305Z,5.20
2022-11-29T07:53:44.953Z,5.20
2022-11-29T07:56:14.741Z,5.20
2022-11-29T07:58:44.723Z,5.20
2022-11-29T08:01:13.636Z,5.20
2022-11-29T08:03:42.859Z,5.20
2022-11-29T08:06:11.258Z,5.30
2022-11-29T08:08:44.018Z,5.30
2022-11-29T08:11:14.332Z,5.30
2022-11-29T08:13:44.029Z,5.30
2022-11-29T08:16:18.471Z,5.30
2022-11-29T08:18:46.820Z,5.30
2022-11-29T08:21:20.830Z,5.30
2022-11-29T08:23:50.626Z,5.30
2022-11-29T08:26:20.853Z,5.40
2022-11-29T08:28:53.455Z,5.50
2022-11-29T08:31:22.367Z,5.40
2022-11-29T08:33:50.801Z,5.40
2022-11-29T08:36:21.496Z,5.50
2022-11-29T08:38:52.843Z,5.50
2022-11-29T08:41:25.607Z,5.60
2022-11-29T08:43:55.256Z,5.60
2022-11-29T08:46:43.767Z,5.60
2022-11-29T08:49:12.024Z,5.50
2022-11-29T08:51:40.336Z,5.50
2022-11-29T08:54:08.101Z,5.50
2022-11-29T08:59:27.671Z,5.40
2022-11-29T09:01:56.076Z,5.40
2022-11-29T09:04:24.424Z,5.40
2022-11-29T09:06:52.785Z,5.40
2022-11-29T09:09:21.031Z,5.40
2022-11-29T09:11:49.784Z,5.30
2022-11-29T09:14:19.952Z,5.20
2022-11-29T09:16:49.720Z,5.20
2022-11-29T09:19:18.263Z,5.20
2022-11-29T09:21:46.544Z,5.20
2022-11-29T09:24:15.166Z,5.10
2022-11-29T09:26:46.879Z,5.10
2022-11-29T09:29:17.395Z,5.20
2022-11-29T09:31:45.878Z,5.20
2022-11-29T09:34:16.750Z,5.10
2022-11-29T09:36:45.780Z,5.20
2022-11-29T09:39:15.564Z,5.20
2022-11-29T09:42:09.616Z,5.30
2022-11-29T09:44:57.247Z,5.40
2022-11-29T09:47:57.991Z,5.40
2022-11-29T09:50:34.930Z,5.40
2022-11-29T09:53:29.335Z,5.40
2022-11-29T09:56:13.144Z,5.40
2022-11-29T09:58:49.471Z,5.40
2022-11-29T10:01:25.826Z,5.40
2022-11-29T10:03:58.391Z,5.40
2022-11-29T10:06:32.693Z,5.40
2022-11-29T10:09:05.407Z,5.40
2022-11-29T10:11:43.324Z,5.30
2022-11-29T10:14:20.248Z,5.50
2022-11-29T10:16:56.003Z,5.60
2022-11-29T10:19:33.289Z,5.80
2022-11-29T10:22:08.549Z,6.10
2022-11-29T10:24:39.608Z,6.30
2022-11-29T10:27:18.273Z,6.20
2022-11-29T10:29:50.133Z,6.10
2022-11-29T10:32:21.580Z,6.10
2022-11-29T10:34:51.239Z,6.10
2022-11-29T10:37:22.991Z,6.20
2022-11-29T10:39:58.564Z,6.20
2022-11-29T10:42:47.704Z,6.20
2022-11-29T10:45:25.208Z,6.10
2022-11-29T10:47:57.356Z,5.90
2022-11-29T10:50:29.059Z,5.80
2022-11-29T10:53:05.902Z,5.70
2022-11-29T10:55:42.783Z,5.60
2022-11-29T10:58:16.051Z,5.60
2022-11-29T11:00:54.701Z,5.50
2022-11-29T11:03:39.278Z,5.50
2022-11-29T11:06:14.676Z,5.50
2022-11-29T11:08:48.477Z,5.40
2022-11-29T11:11:29.074Z,5.40
2022-11-29T11:14:03.127Z,5.40
2022-11-29T11:16:37.146Z,5.30
2022-11-29T11:19:14.585Z,5.30
2022-11-29T11:21:43.012Z,5.30
2022-11-29T11:24:25.784Z,5.30
2022-11-29T11:26:54.521Z,5.30
2022-11-29T11:29:37.599Z,5.20
2022-11-29T11:32:15.964Z,5.20
2022-11-29T11:34:53.476Z,5.20
2022-11-29T11:37:28.821Z,5.20
2022-11-29T11:40:01.243Z,5.30
2022-11-29T11:42:37.927Z,5.30
2022-11-29T11:45:27.517Z,5.30
2022-11-29T11:47:59.712Z,5.30
2022-11-29T11:50:35.169Z,5.30
2022-11-29T11:53:08.475Z,5.40
2022-11-29T11:55:43.969Z,5.40
2022-11-29T11:58:22.790Z,5.50
2022-11-29T12:01:04.072Z,5.50
2022-11-29T12:03:49.207Z,5.50
2022-11-29T12:06:35.196Z,5.50
2022-11-29T12:09:16.460Z,5.60
2022-11-29T12:11:55.183Z,5.60
2022-11-29T12:14:36.580Z,5.50
2022-11-29T12:17:20.375Z,5.60
2022-11-29T12:20:04.283Z,5.50
2022-11-29T12:22:47.915Z,5.40
2022-11-29T12:25:23.626Z,5.40
2022-11-29T12:27:53.583Z,5.50
2022-11-29T12:30:22.424Z,5.60
2022-11-29T12:33:24.216Z,5.60
2022-11-29T12:36:09.715Z,5.60
2022-11-29T12:39:01.061Z,5.50
2022-11-29T12:41:47.188Z,5.50
2022-11-29T12:44:44.251Z,5.40
2022-11-29T12:47:35.741Z,5.40
2022-11-29T12:50:31.892Z,5.40
2022-11-29T12:53:27.106Z,5.40
2022-11-29T12:56:13.558Z,5.40
2022-11-29T12:59:00.034Z,5.40
2022-11-29T13:01:48.262Z,5.40
2022-11-29T13:04:26.514Z,5.50
2022-11-29T13:07:04.941Z,5.50
2022-11-29T13:10:20.708Z,5.60
2022-11-29T13:12:54.303Z,5.50
2022-11-29T13:15:26.132Z,5.40
2022-11-29T13:18:06.050Z,5.50
2022-11-29T13:20:42.853Z,5.50
2022-11-29T13:23:39.163Z,5.50
2022-11-29T13:26:14.855Z,5.60
2022-11-29T13:28:46.322Z,5.60
2022-11-29T13:31:20.617Z,5.60
2022-11-29T13:33:59.717Z,5.70
2022-11-29T13:36:46.525Z,5.70
2022-11-29T13:39:37.746Z,5.70
2022-11-29T13:42:18.512Z,5.70
2022-11-29T13:45:00.009Z,5.60
2022-11-29T13:47:28.478Z,5.70
2022-11-29T13:50:02.673Z,5.60
2022-11-29T13:52:49.793Z,5.50
2022-11-29T13:55:29.212Z,5.50
2022-11-29T13:58:21.980Z,5.50
2022-11-29T14:00:52.568Z,5.50
2022-11-29T14:03:30.517Z,5.40
2022-11-29T14:06:14.879Z,5.40
2022-11-29T14:09:22.734Z,5.50
2022-11-29T14:12:01.266Z,5.50
2022-11-29T14:14:36.347Z,5.50
2022-11-29T14:17:07.417Z,5.50
2022-11-29T14:19:38.076Z,5.50
2022-11-29T14:22:31.974Z,5.50
2022-11-29T14:25:49.640Z,5.60
2022-11-29T14:28:33.613Z,5.60
2022-11-29T14:31:03.438Z,5.70
2022-11-29T14:34:04.363Z,5.60
2022-11-29T14:36:55.032Z,5.60
2022-11-29T14:39:39.440Z,5.60
2022-11-29T14:42:18.483Z,5.60
2022-11-29T14:44:58.247Z,5.50
2022-11-29T14:47:32.110Z,5.50
2022-11-29T14:50:06.520Z,5.50
2022-11-29T14:52:39.781Z,5.50
2022-11-29T14:55:33.496Z,5.40
2022-11-29T14:58:22.863Z,5.50
2022-11-29T15:01:09.527Z,5.50
2022-11-29T15:03:50.501Z,5.50
2022-11-29T15:06:28.093Z,5.50
2022-11-29T15:09:04.577Z,5.50
2022-11-29T15:11:51.038Z,5.50
2022-11-29T15:14:37.616Z,5.40
2022-11-29T15:17:31.534Z,5.40
2022-11-29T15:20:58.964Z,5.30
2022-11-29T15:23:27.250Z,5.30
2022-11-29T15:26:01.877Z,5.30
2022-11-29T15:28:31.544Z,5.40
2022-11-29T15:31:07.280Z,5.40
2022-11-29T15:33:40.556Z,5.30
2022-11-29T15:36:15.770Z,5.40
2022-11-29T15:38:46.416Z,5.40
2022-11-29T15:41:23.380Z,5.50
2022-11-29T15:43:57.780Z,5.50
2022-11-29T15:46:29.513Z,5.60
2022-11-29T15:49:17.886Z,5.50
2022-11-29T15:51:49.550Z,5.50
2022-11-29T15:54:28.517Z,5.50
2022-11-29T15:57:01.837Z,5.60
2022-11-29T15:59:41.883Z,5.50
2022-11-29T16:02:20.081Z,5.50
2022-11-29T16:04:53.415Z,5.50
2022-11-29T16:07:25.724Z,5.40
2022-11-29T16:09:59.440Z,5.50
2022-11-29T16:12:28.257Z,5.50
2022-11-29T16:15:00.708Z,5.50
2022-11-29T16:17:31.793Z,5.50
2022-11-29T16:20:24.229Z,5.40
2022-11-29T16:23:12.514Z,5.40
2022-11-29T16:25:59.583Z,5.40
2022-11-29T16:28:33.962Z,5.50
2022-11-29T16:31:04.788Z,5.50
2022-11-29T16:33:33.608Z,5.60
2022-11-29T16:36:11.875Z,5.50
2022-11-29T16:38:47.548Z,5.50
2022-11-29T16:41:32.211Z,5.60
2022-11-29T16:44:03.300Z,5.60
2022-11-29T16:46:37.131Z,5.50
2022-11-29T16:49:36.368Z,5.50
2022-11-29T16:52:24.849Z,5.50
2022-11-29T16:54:53.412Z,5.60
2022-11-29T16:57:22.265Z,5.50
2022-11-29T16:59:51.177Z,5.50
2022-11-29T17:02:21.285Z,5.50
2022-11-29T17:04:51.355Z,5.50
2022-11-29T17:07:30.594Z,5.50
2022-11-29T17:10:00.249Z,5.40
2022-11-29T17:12:28.621Z,5.40
2022-11-29T17:14:57.026Z,5.40
2022-11-29T17:17:26.776Z,5.40
2022-11-29T17:19:55.136Z,5.50
2022-11-29T17:22:23.408Z,5.50
2022-11-29T17:24:52.004Z,5.60
2022-11-29T17:27:20.393Z,5.50
2022-11-29T17:29:48.701Z,5.50
2022-11-29T17:32:16.920Z,5.50
2022-11-29T17:34:46.604Z,5.50
2022-11-29T17:37:15.021Z,5.60
2022-11-29T17:39:44.771Z,5.80
2022-11-29T17:42:13.546Z,5.90
2022-11-29T17:44:41.808Z,5.90
2022-11-29T17:47:10.105Z,5.90
2022-11-29T17:49:38.402Z,5.80
2022-11-29T17:52:08.410Z,5.70
2022-11-29T17:54:36.732Z,5.60
2022-11-29T17:57:05.091Z,5.60
2022-11-29T17:59:33.305Z,5.60
2022-11-29T18:02:02.128Z,5.60
2022-11-29T18:04:30.550Z,5.60
2022-11-29T18:06:58.848Z,5.50
2022-11-29T18:09:28.511Z,5.50
2022-11-29T18:11:56.907Z,5.50
2022-11-29T18:14:28.120Z,5.50
2022-11-29T18:16:56.591Z,5.50
2022-11-29T18:19:25.292Z,5.50
2022-11-29T18:21:53.748Z,5.50
2022-11-29T18:24:22.050Z,5.50
2022-11-29T18:26:51.804Z,5.40
2022-11-29T18:29:20.511Z,5.40
2022-11-29T18:31:48.893Z,5.40
2022-11-29T18:34:17.232Z,5.40
2022-11-29T18:36:47.160Z,5.40
2022-11-29T18:39:18.742Z,5.30
2022-11-29T18:41:49.117Z,5.40
2022-11-29T18:44:21.960Z,5.40
2022-11-29T18:46:50.707Z,5.50
2022-11-29T18:49:19.445Z,5.50
2022-11-29T18:51:49.562Z,5.60
2022-11-29T18:54:19.600Z,5.50
2022-11-29T18:56:51.144Z,5.60
2022-11-29T18:59:22.866Z,5.50
2022-11-29T19:01:51.372Z,5.50
2022-11-29T19:04:21.677Z,5.50
2022-11-29T19:06:50.557Z,5.50
2022-11-29T19:09:22.021Z,5.50
2022-11-29T19:11:50.640Z,5.60
2022-11-29T19:14:21.138Z,5.60
2022-11-29T19:16:50.489Z,5.70
2022-11-29T19:19:19.684Z,5.80
2022-11-29T19:21:49.001Z,5.80
2022-11-29T19:24:19.188Z,5.60
2022-11-29T19:26:50.246Z,5.60
2022-11-29T19:29:20.291Z,5.60
2022-11-29T19:31:50.227Z,5.50
2022-11-29T19:34:18.581Z,5.40
2022-11-29T19:36:46.962Z,5.50
2022-11-29T19:39:18.132Z,5.50
2022-11-29T19:41:48.428Z,5.50
2022-11-29T19:44:16.845Z,5.60
2022-11-29T19:46:48.680Z,5.60
2022-11-29T19:49:17.646Z,5.70
2022-11-29T19:51:45.980Z,5.60
2022-11-29T19:54:14.283Z,5.60
2022-11-29T19:56:42.633Z,5.50
2022-11-29T19:59:11.084Z,5.50
2022-11-29T20:01:41.890Z,5.50
2022-11-29T20:04:16.444Z,5.40
2022-11-29T20:06:47.491Z,5.40
2022-11-29T20:09:16.778Z,5.50
2022-11-29T20:11:45.378Z,5.50
2022-11-29T20:14:14.654Z,5.50
2022-11-29T20:16:43.587Z,5.50
2022-11-29T20:19:16.248Z,5.50
2022-11-29T20:21:48.648Z,5.60
2022-11-29T20:24:19.301Z,5.60
2022-11-29T20:26:50.231Z,5.60
2022-11-29T20:29:19.235Z,5.50
2022-11-29T20:31:50.723Z,5.50
2022-11-29T20:34:21.995Z,5.60
2022-11-29T20:37:30.193Z,5.60
2022-11-29T20:40:03.429Z,5.60
2022-11-29T20:42:59.253Z,5.50
2022-11-29T20:45:28.592Z,5.50
2022-11-29T20:48:04.656Z,5.40
2022-11-29T20:50:35.280Z,5.40
2022-11-29T20:53:25.093Z,5.40
2022-11-29T20:55:53.503Z,5.40
2022-11-29T20:58:21.822Z,5.40
2022-11-29T21:00:50.253Z,5.40
2022-11-29T21:03:20.640Z,5.50
2022-11-29T21:05:51.014Z,5.50
2022-11-29T21:08:22.091Z,5.50
2022-11-29T21:10:52.423Z,5.60
2022-11-29T21:13:23.514Z,5.60
2022-11-29T21:15:52.880Z,5.50
2022-11-29T21:18:25.284Z,5.50
2022-11-29T21:21:08.745Z,5.60
2022-11-29T21:23:52.584Z,5.60
2022-11-29T21:26:28.648Z,5.50
2022-11-29T21:29:13.475Z,5.50
2022-11-29T21:31:42.645Z,5.50
2022-11-29T21:34:11.427Z,5.50
2022-11-29T21:36:42.227Z,5.50
2022-11-29T21:39:16.070Z,5.50
2022-11-29T21:41:44.584Z,5.50
2022-11-29T21:44:12.961Z,5.50
2022-11-29T21:46:41.333Z,5.50
2022-11-29T21:49:10.716Z,5.60
2022-11-29T21:51:40.402Z,5.60
2022-11-29T21:54:08.732Z,5.60
2022-11-29T21:56:37.166Z,5.60
2022-11-29T21:59:05.829Z,5.50
2022-11-29T22:01:34.624Z,5.40
2022-11-29T22:04:04.078Z,5.40
2022-11-29T22:06:32.537Z,5.20
2022-11-29T22:09:02.471Z,5.50
2022-11-29T22:11:35.365Z,5.40
2022-11-29T22:14:15.933Z,5.40
2022-11-29T22:16:47.811Z,5.40
2022-11-29T22:19:18.186Z,5.40
2022-11-29T22:21:48.996Z,5.40
2022-11-29T22:24:22.359Z,5.30
2022-11-29T22:26:52.294Z,5.30
2022-11-29T22:29:21.640Z,5.30
2022-11-29T22:31:52.836Z,5.30
2022-11-29T22:34:22.089Z,5.30
2022-11-29T22:36:50.442Z,5.40
2022-11-29T22:39:20.301Z,5.40
2022-11-29T22:41:53.905Z,5.40
2022-11-29T22:44:22.813Z,5.50
2022-11-29T22:46:51.686Z,5.50
2022-11-29T22:49:20.428Z,5.60
2022-11-29T22:51:49.079Z,5.50
2022-11-29T22:54:17.882Z,5.60
2022-11-29T22:56:48.144Z,5.50
2022-11-29T22:59:16.608Z,5.40
2022-11-29T23:01:45.801Z,5.50
2022-11-29T23:04:15.703Z,5.40
2022-11-29T23:06:46.273Z,5.40
2022-11-29T23:09:19.696Z,5.40
2022-11-29T23:11:52.950Z,5.50
2022-11-29T23:14:22.379Z,5.50
2022-11-29T23:16:51.075Z,5.60
2022-11-29T23:19:19.879Z,5.60
2022-11-29T23:21:48.362Z,5.60
2022-11-29T23:24:17.211Z,5.60
2022-11-29T23:26:48.360Z,5.60
2022-11-29T23:29:19.770Z,5.50
2022-11-29T23:31:50.196Z,5.50
2022-11-29T23:34:18.935Z,5.50
2022-11-29T23:36:52.664Z,5.50
2022-11-29T23:39:21.638Z,5.60
2022-11-29T23:41:51.471Z,5.50
2022-11-29T23:44:19.842Z,5.60
2022-11-29T23:46:48.232Z,5.60
2022-11-29T23:49:16.657Z,5.60
2022-11-29T23:51:45.141Z,5.50
2022-11-29T23:54:13.539Z,5.40
2022-11-29T23:56:41.918Z,5.40
2022-11-29T23:59:11.505Z,5.50
